TVF71TJ LFPO-LPPT
Flight info
| Callsign | TVF71TJ |
|---|---|
| Flight time | 2h 11m |
| Altitude | 35000 |
| Route | LGL UT176 KURIS UN872 ERIGA UZ218 FUJTI DCT BAKUP DCT BATAX DCT INBOM |
| Aircraft | B738/M-SDE2E3FGHIRWXY/LB1 |
Departure
| Time | 2026-05-05 10:13 |
|---|---|
| Airport | Paris-Orly Airport (LFPO) |
Arrival
| Time | 2026-05-05 12:24 |
|---|---|
| Airport | Lisbon Humberto Delgado Airport (LPPT) |
| Time | Latitude | Longitude | Altitude | Speed | Heading |
|---|---|---|---|---|---|
| 2026-05-05 09:41 | 48.72714 | 2.36746 | 295 ft | 0 kts | 22° |
| 2026-05-05 10:03 | 48.72709 | 2.36743 | 297 ft | 3 kts | 22° |
| 2026-05-05 10:03 | 48.72685 | 2.36728 | 298 ft | 4 kts | 20° |
| 2026-05-05 10:03 | 48.72652 | 2.36714 | 302 ft | 5 kts | 5° |
| 2026-05-05 10:04 | 48.72619 | 2.36726 | 300 ft | 4 kts | 309° |
| 2026-05-05 10:04 | 48.72614 | 2.36757 | 301 ft | 2 kts | 251° |
| 2026-05-05 10:04 | 48.72615 | 2.36759 | 301 ft | 0 kts | 251° |
| 2026-05-05 10:07 | 48.72614 | 2.36759 | 301 ft | 1 kts | 251° |
| 2026-05-05 10:08 | 48.72604 | 2.36714 | 301 ft | 8 kts | 249° |
| 2026-05-05 10:08 | 48.72580 | 2.36622 | 298 ft | 6 kts | 246° |
| 2026-05-05 10:08 | 48.72542 | 2.36610 | 300 ft | 8 kts | 170° |
| 2026-05-05 10:08 | 48.72486 | 2.36558 | 298 ft | 12 kts | 248° |
| 2026-05-05 10:09 | 48.72460 | 2.36431 | 299 ft | 14 kts | 253° |
| 2026-05-05 10:09 | 48.72431 | 2.36278 | 301 ft | 16 kts | 255° |
| 2026-05-05 10:09 | 48.72403 | 2.36124 | 297 ft | 15 kts | 254° |
| 2026-05-05 10:09 | 48.72378 | 2.35983 | 297 ft | 14 kts | 254° |
| 2026-05-05 10:10 | 48.72353 | 2.35849 | 298 ft | 13 kts | 255° |
| 2026-05-05 10:10 | 48.72329 | 2.35719 | 299 ft | 13 kts | 254° |
| 2026-05-05 10:10 | 48.72281 | 2.35615 | 299 ft | 12 kts | 208° |
| 2026-05-05 10:10 | 48.72199 | 2.35611 | 298 ft | 12 kts | 167° |
| 2026-05-05 10:11 | 48.72121 | 2.35647 | 297 ft | 11 kts | 163° |
| 2026-05-05 10:11 | 48.72060 | 2.35693 | 299 ft | 9 kts | 138° |
| 2026-05-05 10:11 | 48.72023 | 2.35767 | 296 ft | 9 kts | 122° |
| 2026-05-05 10:11 | 48.71987 | 2.35862 | 301 ft | 11 kts | 123° |
| 2026-05-05 10:12 | 48.71957 | 2.35931 | 298 ft | 5 kts | 102° |
| 2026-05-05 10:12 | 48.71965 | 2.35990 | 297 ft | 9 kts | 74° |
| 2026-05-05 10:12 | 48.72035 | 2.36365 | 299 ft | 71 kts | 74° |
| 2026-05-05 10:12 | 48.72226 | 2.37404 | 295 ft | 131 kts | 74° |
| 2026-05-05 10:13 | 48.72510 | 2.38964 | 462 ft | 165 kts | 72° |
| 2026-05-05 10:13 | 48.72821 | 2.40619 | 1282 ft | 163 kts | 71° |
| 2026-05-05 10:13 | 48.73129 | 2.42283 | 1898 ft | 175 kts | 73° |
| 2026-05-05 10:13 | 48.73481 | 2.44193 | 2122 ft | 199 kts | 73° |
| 2026-05-05 10:14 | 48.73873 | 2.46315 | 2313 ft | 218 kts | 73° |
| 2026-05-05 10:14 | 48.74159 | 2.48678 | 2534 ft | 240 kts | 84° |
| 2026-05-05 10:14 | 48.74240 | 2.51274 | 3088 ft | 248 kts | 86° |
| 2026-05-05 10:14 | 48.74301 | 2.53899 | 3799 ft | 250 kts | 86° |
| 2026-05-05 10:15 | 48.74196 | 2.56516 | 4484 ft | 256 kts | 104° |
| 2026-05-05 10:15 | 48.73364 | 2.58907 | 5250 ft | 258 kts | 128° |
| 2026-05-05 10:15 | 48.71945 | 2.60620 | 5880 ft | 268 kts | 151° |
| 2026-05-05 10:15 | 48.70106 | 2.61284 | 6490 ft | 277 kts | 179° |
| 2026-05-05 10:16 | 48.68243 | 2.60605 | 7113 ft | 284 kts | 206° |
| 2026-05-05 10:16 | 48.66731 | 2.58659 | 7722 ft | 290 kts | 234° |
| 2026-05-05 10:16 | 48.65958 | 2.55854 | 8362 ft | 294 kts | 261° |
| 2026-05-05 10:16 | 48.65900 | 2.52751 | 9016 ft | 296 kts | 274° |
| 2026-05-05 10:17 | 48.66071 | 2.49618 | 9707 ft | 300 kts | 276° |
| 2026-05-05 10:17 | 48.66246 | 2.46478 | 10226 ft | 310 kts | 275° |
| 2026-05-05 10:17 | 48.66407 | 2.43105 | 10402 ft | 332 kts | 275° |
| 2026-05-05 10:17 | 48.66318 | 2.39499 | 10530 ft | 354 kts | 256° |
| 2026-05-05 10:18 | 48.65435 | 2.35926 | 10819 ft | 368 kts | 246° |
| 2026-05-05 10:18 | 48.64416 | 2.32366 | 11330 ft | 375 kts | 246° |
| 2026-05-05 10:18 | 48.63399 | 2.28704 | 11987 ft | 378 kts | 249° |
| 2026-05-05 10:18 | 48.62866 | 2.24819 | 12631 ft | 381 kts | 270° |
| 2026-05-05 10:19 | 48.63134 | 2.20814 | 13346 ft | 382 kts | 279° |
| 2026-05-05 10:19 | 48.63563 | 2.16823 | 13930 ft | 386 kts | 280° |
| 2026-05-05 10:19 | 48.64007 | 2.12837 | 14465 ft | 391 kts | 280° |
| 2026-05-05 10:19 | 48.64450 | 2.08758 | 15116 ft | 393 kts | 279° |
| 2026-05-05 10:20 | 48.64882 | 2.04634 | 15732 ft | 397 kts | 278° |
| 2026-05-05 10:20 | 48.65298 | 2.00533 | 16341 ft | 401 kts | 278° |
| 2026-05-05 10:20 | 48.65718 | 1.96336 | 16982 ft | 404 kts | 278° |
| 2026-05-05 10:20 | 48.66138 | 1.92100 | 17636 ft | 408 kts | 277° |
| 2026-05-05 10:21 | 48.66622 | 1.87845 | 18233 ft | 411 kts | 282° |
| 2026-05-05 10:21 | 48.67392 | 1.83662 | 18754 ft | 414 kts | 287° |
| 2026-05-05 10:21 | 48.68302 | 1.79513 | 19248 ft | 417 kts | 288° |
| 2026-05-05 10:21 | 48.69231 | 1.75397 | 19728 ft | 419 kts | 288° |
| 2026-05-05 10:22 | 48.70161 | 1.71178 | 20200 ft | 422 kts | 287° |
| 2026-05-05 10:22 | 48.71069 | 1.66924 | 20688 ft | 425 kts | 287° |
| 2026-05-05 10:22 | 48.71952 | 1.62683 | 21151 ft | 428 kts | 287° |
| 2026-05-05 10:22 | 48.72839 | 1.58365 | 21619 ft | 430 kts | 287° |
| 2026-05-05 10:23 | 48.73733 | 1.54000 | 22088 ft | 433 kts | 287° |
| 2026-05-05 10:23 | 48.74621 | 1.49635 | 22532 ft | 436 kts | 285° |
| 2026-05-05 10:23 | 48.75191 | 1.45169 | 22961 ft | 438 kts | 275° |
| 2026-05-05 10:23 | 48.75432 | 1.40555 | 23398 ft | 440 kts | 272° |
| 2026-05-05 10:24 | 48.75598 | 1.35907 | 23786 ft | 442 kts | 272° |
| 2026-05-05 10:24 | 48.75700 | 1.32814 | 24032 ft | 443 kts | 272° |
| 2026-05-05 10:24 | 48.75865 | 1.28109 | 24394 ft | 446 kts | 272° |
| 2026-05-05 10:24 | 48.76049 | 1.23400 | 24768 ft | 448 kts | 272° |
| 2026-05-05 10:25 | 48.76248 | 1.18728 | 25092 ft | 450 kts | 273° |
| 2026-05-05 10:25 | 48.76460 | 1.13975 | 25419 ft | 453 kts | 273° |
| 2026-05-05 10:25 | 48.76678 | 1.09190 | 25772 ft | 455 kts | 273° |
| 2026-05-05 10:25 | 48.76898 | 1.04384 | 26099 ft | 457 kts | 273° |
| 2026-05-05 10:26 | 48.77116 | 0.99562 | 26402 ft | 459 kts | 272° |
| 2026-05-05 10:26 | 48.77333 | 0.94701 | 26679 ft | 462 kts | 272° |
| 2026-05-05 10:26 | 48.77548 | 0.89821 | 26971 ft | 464 kts | 272° |
| 2026-05-05 10:26 | 48.77758 | 0.84992 | 27268 ft | 466 kts | 272° |
| 2026-05-05 10:27 | 48.77970 | 0.80072 | 27547 ft | 468 kts | 272° |
| 2026-05-05 10:27 | 48.78182 | 0.75119 | 27815 ft | 471 kts | 272° |
| 2026-05-05 10:27 | 48.78392 | 0.70150 | 28120 ft | 473 kts | 272° |
| 2026-05-05 10:27 | 48.78602 | 0.65148 | 28395 ft | 475 kts | 272° |
| 2026-05-05 10:28 | 48.78809 | 0.60128 | 28665 ft | 477 kts | 271° |
| 2026-05-05 10:28 | 48.78586 | 0.55192 | 28946 ft | 473 kts | 254° |
| 2026-05-05 10:28 | 48.77482 | 0.50532 | 29372 ft | 466 kts | 239° |
| 2026-05-05 10:28 | 48.75661 | 0.46518 | 29828 ft | 458 kts | 227° |
| 2026-05-05 10:29 | 48.73581 | 0.42871 | 30203 ft | 456 kts | 225° |
| 2026-05-05 10:29 | 48.71474 | 0.39275 | 30542 ft | 455 kts | 225° |
| 2026-05-05 10:29 | 48.69402 | 0.35727 | 30930 ft | 453 kts | 225° |
| 2026-05-05 10:29 | 48.67334 | 0.32138 | 31389 ft | 449 kts | 226° |
| 2026-05-05 10:30 | 48.65302 | 0.28574 | 31861 ft | 446 kts | 226° |
| 2026-05-05 10:30 | 48.63290 | 0.25023 | 32289 ft | 443 kts | 226° |
| 2026-05-05 10:30 | 48.61311 | 0.21528 | 32661 ft | 441 kts | 226° |
| 2026-05-05 10:30 | 48.59305 | 0.17995 | 33003 ft | 440 kts | 226° |
| 2026-05-05 10:31 | 48.57311 | 0.14487 | 33357 ft | 438 kts | 226° |
| 2026-05-05 10:31 | 48.55338 | 0.10990 | 33742 ft | 436 kts | 226° |
| 2026-05-05 10:31 | 48.53378 | 0.07500 | 34082 ft | 434 kts | 226° |
| 2026-05-05 10:31 | 48.51428 | 0.04029 | 34250 ft | 436 kts | 226° |
| 2026-05-05 10:32 | 48.49453 | 0.00521 | 34379 ft | 438 kts | 226° |
| 2026-05-05 10:32 | 48.47503 | -0.02938 | 34569 ft | 439 kts | 226° |
| 2026-05-05 10:32 | 48.45527 | -0.06439 | 34809 ft | 438 kts | 226° |
| 2026-05-05 10:32 | 48.43541 | -0.09950 | 34859 ft | 441 kts | 226° |
| 2026-05-05 10:33 | 48.39537 | -0.17014 | 34857 ft | 441 kts | 226° |
| 2026-05-05 10:33 | 48.35592 | -0.23958 | 34865 ft | 438 kts | 226° |
| 2026-05-05 10:34 | 48.31617 | -0.30876 | 34869 ft | 436 kts | 225° |
| 2026-05-05 10:34 | 48.27641 | -0.37717 | 34868 ft | 435 kts | 225° |
| 2026-05-05 10:35 | 48.23647 | -0.44576 | 34875 ft | 437 kts | 225° |
| 2026-05-05 10:35 | 48.19625 | -0.51474 | 34873 ft | 438 kts | 225° |
| 2026-05-05 10:36 | 48.15627 | -0.58320 | 34886 ft | 438 kts | 225° |
| 2026-05-05 10:36 | 48.11594 | -0.65209 | 34883 ft | 440 kts | 225° |
| 2026-05-05 10:37 | 48.07568 | -0.72067 | 34889 ft | 441 kts | 225° |
| 2026-05-05 10:37 | 48.03489 | -0.78997 | 34900 ft | 443 kts | 225° |
| 2026-05-05 10:38 | 47.99408 | -0.85912 | 34892 ft | 447 kts | 225° |
| 2026-05-05 10:38 | 47.95274 | -0.92899 | 34882 ft | 449 kts | 225° |
| 2026-05-05 10:39 | 47.91124 | -0.99896 | 34874 ft | 450 kts | 225° |
| 2026-05-05 10:39 | 47.86991 | -1.06847 | 34876 ft | 450 kts | 225° |
| 2026-05-05 10:40 | 47.82827 | -1.13832 | 34881 ft | 449 kts | 225° |
| 2026-05-05 10:40 | 47.78698 | -1.20739 | 34878 ft | 448 kts | 225° |
| 2026-05-05 10:41 | 47.74534 | -1.27685 | 34879 ft | 448 kts | 225° |
| 2026-05-05 10:41 | 47.70403 | -1.34559 | 34881 ft | 448 kts | 225° |
| 2026-05-05 10:42 | 47.64156 | -1.44924 | 34879 ft | 449 kts | 225° |
| 2026-05-05 10:43 | 47.60008 | -1.51784 | 34893 ft | 449 kts | 225° |
| 2026-05-05 10:43 | 47.55830 | -1.58666 | 34902 ft | 449 kts | 225° |
| 2026-05-05 10:44 | 47.51639 | -1.65551 | 34895 ft | 451 kts | 225° |
| 2026-05-05 10:44 | 47.47455 | -1.72411 | 34911 ft | 452 kts | 225° |
| 2026-05-05 10:45 | 47.43222 | -1.79335 | 34910 ft | 453 kts | 225° |
| 2026-05-05 10:45 | 47.38997 | -1.86232 | 34910 ft | 454 kts | 225° |
| 2026-05-05 10:46 | 47.34610 | -1.92964 | 34909 ft | 453 kts | 218° |
| 2026-05-05 10:46 | 47.29398 | -1.98029 | 34922 ft | 451 kts | 208° |
| 2026-05-05 10:47 | 47.23987 | -2.02732 | 34911 ft | 452 kts | 208° |
| 2026-05-05 10:47 | 47.18567 | -2.07494 | 34906 ft | 453 kts | 209° |
| 2026-05-05 10:48 | 47.13193 | -2.12265 | 34912 ft | 453 kts | 209° |
| 2026-05-05 10:48 | 47.07789 | -2.17066 | 34912 ft | 454 kts | 209° |
| 2026-05-05 10:49 | 47.02417 | -2.21826 | 34913 ft | 454 kts | 209° |
| 2026-05-05 10:49 | 46.97006 | -2.26607 | 34917 ft | 453 kts | 209° |
| 2026-05-05 10:50 | 46.91611 | -2.31364 | 34919 ft | 453 kts | 209° |
| 2026-05-05 10:50 | 46.86208 | -2.36115 | 34925 ft | 452 kts | 209° |
| 2026-05-05 10:51 | 46.80843 | -2.40825 | 34919 ft | 452 kts | 209° |
| 2026-05-05 10:51 | 46.75458 | -2.45546 | 34924 ft | 451 kts | 210° |
| 2026-05-05 10:52 | 46.70066 | -2.50264 | 34925 ft | 451 kts | 210° |
| 2026-05-05 10:52 | 46.64713 | -2.54936 | 34925 ft | 451 kts | 210° |
| 2026-05-05 10:53 | 46.59322 | -2.59631 | 34929 ft | 450 kts | 210° |
| 2026-05-05 10:53 | 46.53930 | -2.64315 | 34934 ft | 451 kts | 210° |
| 2026-05-05 10:54 | 46.48565 | -2.68967 | 34936 ft | 451 kts | 210° |
| 2026-05-05 10:54 | 46.43162 | -2.73639 | 34934 ft | 451 kts | 210° |
| 2026-05-05 10:55 | 46.37791 | -2.78274 | 34935 ft | 452 kts | 210° |
| 2026-05-05 10:55 | 46.32359 | -2.82951 | 34936 ft | 452 kts | 210° |
| 2026-05-05 10:56 | 46.26949 | -2.87598 | 34940 ft | 453 kts | 209° |
| 2026-05-05 10:56 | 46.21567 | -2.92259 | 34940 ft | 453 kts | 210° |
| 2026-05-05 10:57 | 46.16165 | -2.96970 | 34944 ft | 453 kts | 210° |
| 2026-05-05 10:57 | 46.10767 | -3.01667 | 34946 ft | 453 kts | 210° |
| 2026-05-05 10:58 | 46.05390 | -3.06330 | 34947 ft | 453 kts | 210° |
| 2026-05-05 10:58 | 45.99990 | -3.10998 | 34948 ft | 453 kts | 210° |
| 2026-05-05 10:59 | 45.94605 | -3.15643 | 34951 ft | 452 kts | 210° |
| 2026-05-05 10:59 | 45.89202 | -3.20293 | 34954 ft | 452 kts | 210° |
| 2026-05-05 11:00 | 45.83797 | -3.24934 | 34954 ft | 452 kts | 210° |
| 2026-05-05 11:00 | 45.78394 | -3.29562 | 34952 ft | 451 kts | 210° |
| 2026-05-05 11:01 | 45.73028 | -3.34148 | 34964 ft | 451 kts | 210° |
| 2026-05-05 11:01 | 45.67619 | -3.38761 | 34967 ft | 451 kts | 210° |
| 2026-05-05 11:02 | 45.62249 | -3.43329 | 34964 ft | 451 kts | 210° |
| 2026-05-05 11:02 | 45.56863 | -3.47901 | 34969 ft | 450 kts | 210° |
| 2026-05-05 11:03 | 45.51462 | -3.52475 | 34964 ft | 450 kts | 210° |
| 2026-05-05 11:03 | 45.46106 | -3.57002 | 34971 ft | 450 kts | 210° |
| 2026-05-05 11:04 | 45.40711 | -3.61550 | 34967 ft | 450 kts | 210° |
| 2026-05-05 11:04 | 45.35353 | -3.66058 | 34967 ft | 450 kts | 210° |
| 2026-05-05 11:05 | 45.29953 | -3.70591 | 34971 ft | 450 kts | 210° |
| 2026-05-05 11:05 | 45.24586 | -3.75086 | 34975 ft | 450 kts | 211° |
| 2026-05-05 11:06 | 45.19173 | -3.79609 | 34972 ft | 451 kts | 211° |
| 2026-05-05 11:06 | 45.13751 | -3.84130 | 34978 ft | 452 kts | 211° |
| 2026-05-05 11:07 | 45.08358 | -3.88617 | 34979 ft | 452 kts | 211° |
| 2026-05-05 11:07 | 45.02913 | -3.93137 | 34977 ft | 453 kts | 211° |
| 2026-05-05 11:08 | 44.97463 | -3.97651 | 34983 ft | 454 kts | 211° |
| 2026-05-05 11:08 | 44.91990 | -4.02174 | 34980 ft | 455 kts | 211° |
| 2026-05-05 11:09 | 44.86553 | -4.06657 | 34981 ft | 455 kts | 211° |
| 2026-05-05 11:09 | 44.81056 | -4.11180 | 34983 ft | 456 kts | 211° |
| 2026-05-05 11:10 | 44.75612 | -4.15650 | 34981 ft | 456 kts | 211° |
| 2026-05-05 11:10 | 44.71033 | -4.19401 | 34980 ft | 456 kts | 211° |
| 2026-05-05 11:11 | 44.64624 | -4.24641 | 34984 ft | 456 kts | 211° |
| 2026-05-05 11:11 | 44.60057 | -4.28366 | 34985 ft | 455 kts | 211° |
| 2026-05-05 11:12 | 44.54571 | -4.32832 | 34989 ft | 455 kts | 211° |
| 2026-05-05 11:12 | 44.49109 | -4.37270 | 34987 ft | 454 kts | 211° |
| 2026-05-05 11:13 | 44.43638 | -4.41706 | 34986 ft | 454 kts | 211° |
| 2026-05-05 11:13 | 44.38210 | -4.46152 | 34993 ft | 453 kts | 212° |
| 2026-05-05 11:14 | 44.32811 | -4.50737 | 34990 ft | 453 kts | 212° |
| 2026-05-05 11:14 | 44.27413 | -4.55334 | 34992 ft | 453 kts | 212° |
| 2026-05-05 11:15 | 44.22059 | -4.59869 | 34997 ft | 453 kts | 212° |
| 2026-05-05 11:15 | 44.16687 | -4.64395 | 34998 ft | 452 kts | 212° |
| 2026-05-05 11:16 | 44.11292 | -4.68927 | 35002 ft | 452 kts | 213° |
| 2026-05-05 11:16 | 44.05896 | -4.73450 | 35005 ft | 452 kts | 213° |
| 2026-05-05 11:17 | 44.00499 | -4.77964 | 35010 ft | 451 kts | 213° |
| 2026-05-05 11:17 | 43.95140 | -4.82438 | 35008 ft | 451 kts | 213° |
| 2026-05-05 11:18 | 43.89746 | -4.86931 | 35012 ft | 451 kts | 213° |
| 2026-05-05 11:18 | 43.84355 | -4.91413 | 35011 ft | 451 kts | 213° |
| 2026-05-05 11:19 | 43.79004 | -4.95850 | 35015 ft | 451 kts | 213° |
| 2026-05-05 11:19 | 43.73612 | -5.00313 | 35017 ft | 451 kts | 213° |
| 2026-05-05 11:20 | 43.68222 | -5.04765 | 35019 ft | 451 kts | 213° |
| 2026-05-05 11:20 | 43.62860 | -5.09185 | 35022 ft | 451 kts | 213° |
| 2026-05-05 11:21 | 43.57451 | -5.13633 | 35022 ft | 451 kts | 213° |
| 2026-05-05 11:21 | 43.52078 | -5.18043 | 35025 ft | 451 kts | 213° |
| 2026-05-05 11:22 | 43.46678 | -5.22466 | 35020 ft | 452 kts | 213° |
| 2026-05-05 11:22 | 43.41288 | -5.26871 | 35020 ft | 452 kts | 213° |
| 2026-05-05 11:23 | 43.35876 | -5.31284 | 35024 ft | 452 kts | 213° |
| 2026-05-05 11:23 | 43.30450 | -5.35700 | 35015 ft | 452 kts | 213° |
| 2026-05-05 11:24 | 43.25050 | -5.40086 | 35013 ft | 452 kts | 213° |
| 2026-05-05 11:24 | 43.19615 | -5.44491 | 35014 ft | 453 kts | 213° |
| 2026-05-05 11:25 | 43.14210 | -5.48862 | 35022 ft | 453 kts | 213° |
| 2026-05-05 11:25 | 43.08772 | -5.53252 | 35003 ft | 453 kts | 213° |
| 2026-05-05 11:26 | 43.03337 | -5.57629 | 34995 ft | 453 kts | 213° |
| 2026-05-05 11:26 | 42.97918 | -5.61984 | 34991 ft | 453 kts | 213° |
| 2026-05-05 11:27 | 42.92483 | -5.66343 | 34996 ft | 452 kts | 213° |
| 2026-05-05 11:27 | 42.87089 | -5.70660 | 35004 ft | 451 kts | 213° |
| 2026-05-05 11:28 | 42.81652 | -5.75003 | 35008 ft | 451 kts | 213° |
| 2026-05-05 11:28 | 42.76259 | -5.79303 | 35008 ft | 451 kts | 213° |
| 2026-05-05 11:29 | 42.70833 | -5.83620 | 35008 ft | 450 kts | 214° |
| 2026-05-05 11:29 | 42.65415 | -5.87921 | 35007 ft | 451 kts | 214° |
| 2026-05-05 11:30 | 42.60005 | -5.92207 | 35005 ft | 451 kts | 214° |
| 2026-05-05 11:30 | 42.54605 | -5.96477 | 35002 ft | 451 kts | 214° |
| 2026-05-05 11:31 | 42.49177 | -6.00760 | 35003 ft | 451 kts | 214° |
| 2026-05-05 11:31 | 42.43743 | -6.05039 | 34996 ft | 451 kts | 214° |
| 2026-05-05 11:32 | 42.38304 | -6.09314 | 34995 ft | 451 kts | 214° |
| 2026-05-05 11:32 | 42.32892 | -6.13558 | 34993 ft | 451 kts | 214° |
| 2026-05-05 11:33 | 42.27438 | -6.17827 | 34991 ft | 451 kts | 214° |
| 2026-05-05 11:33 | 42.22027 | -6.22054 | 34990 ft | 451 kts | 214° |
| 2026-05-05 11:34 | 42.16605 | -6.26281 | 34998 ft | 451 kts | 214° |
| 2026-05-05 11:34 | 42.11171 | -6.30509 | 34995 ft | 451 kts | 214° |
| 2026-05-05 11:35 | 42.05726 | -6.34737 | 34995 ft | 451 kts | 214° |
| 2026-05-05 11:35 | 42.00276 | -6.38961 | 35005 ft | 451 kts | 214° |
| 2026-05-05 11:36 | 41.94864 | -6.43147 | 34994 ft | 451 kts | 214° |
| 2026-05-05 11:36 | 41.89422 | -6.47347 | 34996 ft | 451 kts | 214° |
| 2026-05-05 11:37 | 41.83967 | -6.51550 | 35001 ft | 451 kts | 214° |
| 2026-05-05 11:37 | 41.78529 | -6.55732 | 35006 ft | 451 kts | 214° |
| 2026-05-05 11:38 | 41.73122 | -6.59882 | 35013 ft | 450 kts | 214° |
| 2026-05-05 11:38 | 41.67837 | -6.64305 | 35023 ft | 445 kts | 221° |
| 2026-05-05 11:39 | 41.62915 | -6.69342 | 35021 ft | 444 kts | 223° |
| 2026-05-05 11:39 | 41.58030 | -6.74431 | 35028 ft | 444 kts | 222° |
| 2026-05-05 11:40 | 41.53161 | -6.79434 | 35030 ft | 444 kts | 222° |
| 2026-05-05 11:40 | 41.48230 | -6.84448 | 35035 ft | 444 kts | 222° |
| 2026-05-05 11:41 | 41.43329 | -6.89407 | 35056 ft | 444 kts | 222° |
| 2026-05-05 11:41 | 41.38391 | -6.94393 | 35037 ft | 444 kts | 222° |
| 2026-05-05 11:42 | 41.33486 | -6.99338 | 35041 ft | 444 kts | 222° |
| 2026-05-05 11:42 | 41.28543 | -7.04311 | 35043 ft | 444 kts | 222° |
| 2026-05-05 11:43 | 41.23624 | -7.09252 | 35045 ft | 445 kts | 222° |
| 2026-05-05 11:43 | 41.18680 | -7.14208 | 35030 ft | 444 kts | 223° |
| 2026-05-05 11:44 | 41.13749 | -7.19140 | 35044 ft | 443 kts | 223° |
| 2026-05-05 11:44 | 41.08835 | -7.24047 | 35051 ft | 443 kts | 223° |
| 2026-05-05 11:45 | 41.03902 | -7.28963 | 35057 ft | 443 kts | 223° |
| 2026-05-05 11:45 | 40.98998 | -7.33841 | 35058 ft | 442 kts | 223° |
| 2026-05-05 11:46 | 40.94068 | -7.38736 | 35054 ft | 442 kts | 223° |
| 2026-05-05 11:46 | 40.89145 | -7.43613 | 35059 ft | 441 kts | 223° |
| 2026-05-05 11:47 | 40.84233 | -7.48471 | 35063 ft | 440 kts | 223° |
| 2026-05-05 11:47 | 40.79351 | -7.53291 | 35068 ft | 440 kts | 223° |
| 2026-05-05 11:48 | 40.71971 | -7.60560 | 35067 ft | 440 kts | 224° |
| 2026-05-05 11:48 | 40.67091 | -7.65354 | 35057 ft | 439 kts | 224° |
| 2026-05-05 11:49 | 40.62190 | -7.70160 | 35070 ft | 438 kts | 224° |
| 2026-05-05 11:49 | 40.57350 | -7.74896 | 35055 ft | 431 kts | 224° |
| 2026-05-05 11:50 | 40.54970 | -7.77212 | 35051 ft | 418 kts | 224° |
| 2026-05-05 11:50 | 40.52648 | -7.79472 | 35067 ft | 412 kts | 224° |
| 2026-05-05 11:50 | 40.48077 | -7.83937 | 35080 ft | 410 kts | 225° |
| 2026-05-05 11:51 | 40.43244 | -7.88014 | 35076 ft | 418 kts | 214° |
| 2026-05-05 11:51 | 40.37681 | -7.90607 | 35079 ft | 431 kts | 201° |
| 2026-05-05 11:52 | 40.31783 | -7.92225 | 35069 ft | 433 kts | 199° |
| 2026-05-05 11:52 | 40.25872 | -7.93715 | 35074 ft | 432 kts | 199° |
| 2026-05-05 11:53 | 40.20003 | -7.95171 | 35068 ft | 431 kts | 199° |
| 2026-05-05 11:53 | 40.14101 | -7.96627 | 35068 ft | 431 kts | 199° |
| 2026-05-05 11:54 | 40.08212 | -7.98076 | 35067 ft | 430 kts | 199° |
| 2026-05-05 11:54 | 40.02317 | -7.99531 | 35074 ft | 430 kts | 199° |
| 2026-05-05 11:55 | 39.96484 | -8.00975 | 35065 ft | 429 kts | 199° |
| 2026-05-05 11:55 | 39.90627 | -8.02487 | 35064 ft | 423 kts | 205° |
| 2026-05-05 11:56 | 39.87981 | -8.03970 | 35093 ft | 407 kts | 219° |
| 2026-05-05 11:56 | 39.85749 | -8.06090 | 35074 ft | 396 kts | 230° |
| 2026-05-05 11:56 | 39.82344 | -8.11557 | 35081 ft | 386 kts | 239° |
| 2026-05-05 11:57 | 39.79153 | -8.17123 | 35077 ft | 386 kts | 239° |
| 2026-05-05 11:57 | 39.76450 | -8.21770 | 35083 ft | 387 kts | 239° |
| 2026-05-05 11:58 | 39.72648 | -8.28251 | 35086 ft | 386 kts | 238° |
| 2026-05-05 11:58 | 39.69926 | -8.32879 | 35080 ft | 383 kts | 238° |
| 2026-05-05 11:59 | 39.66703 | -8.38349 | 34959 ft | 384 kts | 238° |
| 2026-05-05 11:59 | 39.65076 | -8.41106 | 34697 ft | 379 kts | 238° |
| 2026-05-05 11:59 | 39.63502 | -8.43770 | 34303 ft | 375 kts | 238° |
| 2026-05-05 12:00 | 39.61927 | -8.46437 | 33940 ft | 371 kts | 238° |
| 2026-05-05 12:00 | 39.60356 | -8.49094 | 33474 ft | 369 kts | 238° |
| 2026-05-05 12:00 | 39.58765 | -8.51709 | 32942 ft | 371 kts | 233° |
| 2026-05-05 12:00 | 39.56751 | -8.53895 | 32404 ft | 382 kts | 220° |
| 2026-05-05 12:01 | 39.54520 | -8.55685 | 32029 ft | 381 kts | 218° |
| 2026-05-05 12:01 | 39.52239 | -8.57448 | 31631 ft | 378 kts | 218° |
| 2026-05-05 12:01 | 39.49983 | -8.59200 | 31217 ft | 376 kts | 218° |
| 2026-05-05 12:01 | 39.47766 | -8.60924 | 30806 ft | 375 kts | 218° |
| 2026-05-05 12:02 | 39.45536 | -8.62658 | 30414 ft | 373 kts | 217° |
| 2026-05-05 12:02 | 39.43316 | -8.64382 | 29939 ft | 372 kts | 217° |
| 2026-05-05 12:02 | 39.41075 | -8.66126 | 29033 ft | 380 kts | 217° |
| 2026-05-05 12:02 | 39.38780 | -8.67908 | 28249 ft | 386 kts | 217° |
| 2026-05-05 12:03 | 39.36473 | -8.69693 | 27728 ft | 384 kts | 217° |
| 2026-05-05 12:03 | 39.34158 | -8.71483 | 26833 ft | 392 kts | 217° |
| 2026-05-05 12:03 | 39.31798 | -8.73316 | 26053 ft | 397 kts | 218° |
| 2026-05-05 12:03 | 39.29597 | -8.75429 | 25486 ft | 390 kts | 226° |
| 2026-05-05 12:04 | 39.27612 | -8.77696 | 25056 ft | 384 kts | 228° |
| 2026-05-05 12:04 | 39.25646 | -8.80021 | 24608 ft | 381 kts | 228° |
| 2026-05-05 12:04 | 39.23689 | -8.82339 | 24093 ft | 380 kts | 228° |
| 2026-05-05 12:04 | 39.21729 | -8.84637 | 23558 ft | 380 kts | 228° |
| 2026-05-05 12:05 | 39.19765 | -8.86915 | 22991 ft | 379 kts | 227° |
| 2026-05-05 12:05 | 39.17800 | -8.89172 | 22469 ft | 377 kts | 227° |
| 2026-05-05 12:05 | 39.15866 | -8.91383 | 21855 ft | 377 kts | 227° |
| 2026-05-05 12:05 | 39.13872 | -8.93663 | 20967 ft | 385 kts | 227° |
| 2026-05-05 12:06 | 39.11856 | -8.95961 | 20316 ft | 387 kts | 226° |
| 2026-05-05 12:06 | 39.09843 | -8.98248 | 19829 ft | 384 kts | 226° |
| 2026-05-05 12:06 | 39.07875 | -9.00483 | 19350 ft | 381 kts | 226° |
| 2026-05-05 12:06 | 39.05874 | -9.02758 | 18647 ft | 385 kts | 226° |
| 2026-05-05 12:07 | 39.03867 | -9.05036 | 18297 ft | 378 kts | 226° |
| 2026-05-05 12:07 | 39.01921 | -9.07237 | 18033 ft | 369 kts | 226° |
| 2026-05-05 12:07 | 38.99962 | -9.09333 | 17754 ft | 364 kts | 218° |
| 2026-05-05 12:07 | 38.97682 | -9.10782 | 17492 ft | 362 kts | 207° |
| 2026-05-05 12:08 | 38.95398 | -9.11970 | 17219 ft | 356 kts | 206° |
| 2026-05-05 12:08 | 38.93101 | -9.13143 | 16892 ft | 352 kts | 206° |
| 2026-05-05 12:08 | 38.90826 | -9.14317 | 16543 ft | 348 kts | 207° |
| 2026-05-05 12:08 | 38.88595 | -9.15484 | 16213 ft | 344 kts | 207° |
| 2026-05-05 12:09 | 38.86416 | -9.16636 | 15921 ft | 340 kts | 207° |
| 2026-05-05 12:09 | 38.84242 | -9.17793 | 15596 ft | 337 kts | 207° |
| 2026-05-05 12:09 | 38.82080 | -9.18947 | 15277 ft | 334 kts | 207° |
| 2026-05-05 12:09 | 38.79941 | -9.20089 | 14970 ft | 331 kts | 207° |
| 2026-05-05 12:10 | 38.77822 | -9.21219 | 14647 ft | 328 kts | 207° |
| 2026-05-05 12:10 | 38.75717 | -9.22341 | 14346 ft | 326 kts | 207° |
| 2026-05-05 12:10 | 38.73654 | -9.23444 | 14015 ft | 323 kts | 209° |
| 2026-05-05 12:10 | 38.71840 | -9.25027 | 13719 ft | 310 kts | 231° |
| 2026-05-05 12:11 | 38.70518 | -9.27109 | 13447 ft | 302 kts | 238° |
| 2026-05-05 12:11 | 38.69253 | -9.29301 | 13125 ft | 301 kts | 238° |
| 2026-05-05 12:11 | 38.68018 | -9.31452 | 12800 ft | 298 kts | 240° |
| 2026-05-05 12:11 | 38.67032 | -9.33709 | 12495 ft | 292 kts | 249° |
| 2026-05-05 12:12 | 38.66205 | -9.36074 | 12176 ft | 289 kts | 251° |
| 2026-05-05 12:12 | 38.65408 | -9.38436 | 11878 ft | 287 kts | 250° |
| 2026-05-05 12:12 | 38.64620 | -9.40741 | 11587 ft | 285 kts | 250° |
| 2026-05-05 12:12 | 38.63813 | -9.43049 | 11294 ft | 283 kts | 250° |
| 2026-05-05 12:13 | 38.62998 | -9.45346 | 11006 ft | 282 kts | 249° |
| 2026-05-05 12:13 | 38.62185 | -9.47617 | 10711 ft | 280 kts | 249° |
| 2026-05-05 12:13 | 38.61369 | -9.49886 | 10428 ft | 279 kts | 249° |
| 2026-05-05 12:13 | 38.60536 | -9.52120 | 10142 ft | 280 kts | 242° |
| 2026-05-05 12:14 | 38.59179 | -9.53925 | 9819 ft | 286 kts | 214° |
| 2026-05-05 12:14 | 38.57319 | -9.54709 | 9541 ft | 289 kts | 185° |
| 2026-05-05 12:14 | 38.55333 | -9.54476 | 9281 ft | 287 kts | 169° |
| 2026-05-05 12:14 | 38.53375 | -9.53955 | 8988 ft | 286 kts | 168° |
| 2026-05-05 12:15 | 38.51442 | -9.53433 | 8830 ft | 279 kts | 169° |
| 2026-05-05 12:15 | 38.49611 | -9.52783 | 8589 ft | 274 kts | 151° |
| 2026-05-05 12:15 | 38.48234 | -9.51176 | 8140 ft | 269 kts | 118° |
| 2026-05-05 12:15 | 38.47660 | -9.48963 | 7750 ft | 260 kts | 91° |
| 2026-05-05 12:16 | 38.47827 | -9.46707 | 7366 ft | 252 kts | 70° |
| 2026-05-05 12:16 | 38.48583 | -9.44721 | 6985 ft | 247 kts | 55° |
| 2026-05-05 12:16 | 38.49498 | -9.42905 | 6637 ft | 244 kts | 54° |
| 2026-05-05 12:16 | 38.50431 | -9.41092 | 6269 ft | 244 kts | 55° |
| 2026-05-05 12:17 | 38.51360 | -9.39279 | 6051 ft | 241 kts | 54° |
| 2026-05-05 12:17 | 38.52216 | -9.37435 | 5765 ft | 242 kts | 66° |
| 2026-05-05 12:17 | 38.52625 | -9.35405 | 5728 ft | 233 kts | 74° |
| 2026-05-05 12:17 | 38.52981 | -9.33419 | 5633 ft | 224 kts | 73° |
| 2026-05-05 12:18 | 38.53310 | -9.31525 | 5576 ft | 211 kts | 74° |
| 2026-05-05 12:18 | 38.53622 | -9.29759 | 5421 ft | 201 kts | 73° |
| 2026-05-05 12:18 | 38.53930 | -9.28040 | 5201 ft | 195 kts | 70° |
| 2026-05-05 12:18 | 38.54656 | -9.26703 | 5055 ft | 180 kts | 27° |
| 2026-05-05 12:19 | 38.55774 | -9.25952 | 4853 ft | 184 kts | 28° |
| 2026-05-05 12:19 | 38.56887 | -9.25154 | 4590 ft | 186 kts | 25° |
| 2026-05-05 12:19 | 38.58043 | -9.24433 | 4332 ft | 183 kts | 22° |
| 2026-05-05 12:19 | 38.59199 | -9.23779 | 4083 ft | 180 kts | 22° |
| 2026-05-05 12:20 | 38.60332 | -9.23160 | 3860 ft | 177 kts | 21° |
| 2026-05-05 12:20 | 38.61467 | -9.22547 | 3606 ft | 176 kts | 21° |
| 2026-05-05 12:20 | 38.62586 | -9.21946 | 3416 ft | 174 kts | 21° |
| 2026-05-05 12:20 | 38.63724 | -9.21330 | 3133 ft | 180 kts | 21° |
| 2026-05-05 12:21 | 38.64875 | -9.20704 | 2880 ft | 179 kts | 20° |
| 2026-05-05 12:21 | 38.66017 | -9.20101 | 2636 ft | 180 kts | 18° |
| 2026-05-05 12:21 | 38.67174 | -9.19470 | 2387 ft | 182 kts | 20° |
| 2026-05-05 12:21 | 38.68341 | -9.18843 | 2125 ft | 180 kts | 18° |
| 2026-05-05 12:22 | 38.69480 | -9.18239 | 1887 ft | 175 kts | 18° |
| 2026-05-05 12:22 | 38.70588 | -9.17642 | 1694 ft | 170 kts | 17° |
| 2026-05-05 12:22 | 38.71654 | -9.17071 | 1475 ft | 159 kts | 19° |
| 2026-05-05 12:22 | 38.72644 | -9.16544 | 1230 ft | 149 kts | 18° |
| 2026-05-05 12:23 | 38.73583 | -9.16037 | 1014 ft | 146 kts | 18° |
| 2026-05-05 12:23 | 38.74495 | -9.15542 | 824 ft | 145 kts | 19° |
| 2026-05-05 12:23 | 38.75422 | -9.15047 | 666 ft | 145 kts | 17° |
| 2026-05-05 12:23 | 38.76375 | -9.14530 | 429 ft | 150 kts | 17° |
| 2026-05-05 12:24 | 38.77321 | -9.14028 | 356 ft | 134 kts | 20° |
| 2026-05-05 12:24 | 38.77975 | -9.13676 | 352 ft | 70 kts | 23° |
| 2026-05-05 12:24 | 38.78233 | -9.13521 | 353 ft | 25 kts | 34° |
| 2026-05-05 12:24 | 38.78350 | -9.13386 | 352 ft | 16 kts | 49° |
| 2026-05-05 12:25 | 38.78367 | -9.13287 | 358 ft | 12 kts | 123° |
| 2026-05-05 12:25 | 38.78297 | -9.13279 | 357 ft | 10 kts | 197° |
| 2026-05-05 12:25 | 38.78223 | -9.13317 | 351 ft | 13 kts | 202° |
| 2026-05-05 12:25 | 38.78121 | -9.13371 | 356 ft | 18 kts | 203° |
| 2026-05-05 12:26 | 38.77999 | -9.13409 | 351 ft | 18 kts | 175° |
| 2026-05-05 12:26 | 38.77877 | -9.13378 | 351 ft | 18 kts | 169° |
| 2026-05-05 12:26 | 38.77760 | -9.13348 | 354 ft | 17 kts | 168° |
| 2026-05-05 12:26 | 38.77647 | -9.13323 | 351 ft | 16 kts | 177° |
| 2026-05-05 12:27 | 38.77547 | -9.13312 | 351 ft | 8 kts | 160° |
| 2026-05-05 12:27 | 38.77536 | -9.13258 | 350 ft | 6 kts | 81° |
| 2026-05-05 12:27 | 38.77545 | -9.13206 | 350 ft | 6 kts | 78° |
| 2026-05-05 12:27 | 38.77550 | -9.13174 | 350 ft | 0 kts | 78° |